createdAt,value
2019-03-15T00:02:29.336Z,46.50
2019-03-15T00:05:01.005Z,46.10
2019-03-15T00:07:32.748Z,46.40
2019-03-15T00:10:03.474Z,47.10
2019-03-15T00:12:35.081Z,46.50
2019-03-15T00:15:07.039Z,46.60
2019-03-15T00:17:38.785Z,46.80
2019-03-15T00:20:10.785Z,46.60
2019-03-15T00:22:41.626Z,46.60
2019-03-15T00:25:13.366Z,46.30
2019-03-15T00:27:45.304Z,46.30
2019-03-15T00:30:16.857Z,46.70
2019-03-15T00:32:48.626Z,46.50
2019-03-15T00:37:51.397Z,46.50
2019-03-15T00:40:23.312Z,46.30
2019-03-15T00:42:55.477Z,46.60
2019-03-15T00:45:27.055Z,46.60
2019-03-15T00:47:58.781Z,46.50
2019-03-15T00:50:30.078Z,46.70
2019-03-15T00:53:01.815Z,46.60
2019-03-15T00:55:33.647Z,46.60
2019-03-15T00:58:05.373Z,46.70
2019-03-15T01:00:37.321Z,46.30
2019-03-15T01:03:09.056Z,46.70
2019-03-15T01:05:41.073Z,46.70
2019-03-15T01:08:12.742Z,46.70
2019-03-15T01:10:43.761Z,46.80
2019-03-15T01:13:14.633Z,46.70
2019-03-15T01:15:46.350Z,46.70
2019-03-15T01:18:18.447Z,46.40
2019-03-15T01:20:50.274Z,46.70
2019-03-15T01:23:21.872Z,46.70
2019-03-15T01:25:54.389Z,46.70
2019-03-15T01:28:26.055Z,46.80
2019-03-15T01:30:57.774Z,46.80
2019-03-15T01:33:28.433Z,46.80
2019-03-15T01:36:00.411Z,46.70
2019-03-15T01:38:32.373Z,46.80
2019-03-15T01:41:04.472Z,46.80
2019-03-15T01:43:36.311Z,46.80
2019-03-15T01:46:08.411Z,46.70
2019-03-15T01:48:40.313Z,46.90
2019-03-15T01:51:35.368Z,46.80
2019-03-15T01:54:07.075Z,46.40
2019-03-15T01:56:38.777Z,46.80
2019-03-15T01:59:09.456Z,46.80
2019-03-15T02:01:41.149Z,46.80
2019-03-15T02:04:12.793Z,46.80
2019-03-15T02:06:44.368Z,46.80
2019-03-15T02:09:16.075Z,46.80
2019-03-15T02:11:48.296Z,46.80
2019-03-15T02:14:19.828Z,46.80
2019-03-15T02:16:51.502Z,46.80
2019-03-15T02:19:23.057Z,46.70
2019-03-15T02:21:54.799Z,46.70
2019-03-15T02:24:25.470Z,46.70
2019-03-15T02:26:57.345Z,46.80
2019-03-15T02:29:29.774Z,46.80
2019-03-15T02:32:01.431Z,46.90
2019-03-15T02:34:33.074Z,46.80
2019-03-15T02:37:04.817Z,46.80
2019-03-15T02:39:36.770Z,46.80
2019-03-15T02:42:07.794Z,46.90
2019-03-15T02:44:39.542Z,46.80
2019-03-15T02:47:11.657Z,46.80
2019-03-15T02:49:43.351Z,46.80
2019-03-15T02:52:15.788Z,46.40
2019-03-15T02:54:48.062Z,46.80
2019-03-15T02:57:19.760Z,46.80
2019-03-15T02:59:50.465Z,46.80
2019-03-15T03:02:22.047Z,46.80
2019-03-15T03:04:53.838Z,46.80
2019-03-15T03:07:25.576Z,46.80
2019-03-15T03:09:57.256Z,46.80
2019-03-15T03:12:29.400Z,46.60
2019-03-15T03:15:01.058Z,46.80
2019-03-15T03:17:32.782Z,46.80
2019-03-15T03:20:04.749Z,47.00
2019-03-15T03:22:36.358Z,46.90
2019-03-15T03:25:08.724Z,47.00
2019-03-15T03:27:39.443Z,47.00
2019-03-15T03:30:11.321Z,46.90
2019-03-15T03:32:44.495Z,47.00
2019-03-15T03:35:16.797Z,47.00
2019-03-15T03:37:48.421Z,47.00
2019-03-15T03:40:21.124Z,47.00
2019-03-15T03:42:53.073Z,47.00
2019-03-15T03:45:24.964Z,47.00
2019-03-15T03:47:56.778Z,47.00
2019-03-15T03:50:27.738Z,47.10
2019-03-15T03:55:51.721Z,47.10
2019-03-15T03:58:23.665Z,47.10
2019-03-15T04:00:55.458Z,47.00
2019-03-15T04:03:27.055Z,46.60
2019-03-15T04:05:59.325Z,46.90
2019-03-15T04:08:31.075Z,46.80
2019-03-15T04:11:02.789Z,46.80
2019-03-15T04:13:33.517Z,46.70
2019-03-15T04:16:05.332Z,46.70
2019-03-15T04:18:37.338Z,46.70
2019-03-15T04:21:09.297Z,46.70
2019-03-15T04:23:40.820Z,46.70
2019-03-15T04:26:12.735Z,46.60
2019-03-15T04:28:43.453Z,46.60
2019-03-15T04:31:15.044Z,46.70
2019-03-15T04:33:47.329Z,46.50
2019-03-15T04:36:18.847Z,46.70
2019-03-15T04:38:50.750Z,46.60
2019-03-15T04:41:21.544Z,46.70
2019-03-15T04:43:53.265Z,46.60
2019-03-15T04:46:25.316Z,47.20
2019-03-15T04:48:57.305Z,46.60
2019-03-15T04:51:29.562Z,46.60
2019-03-15T04:54:01.338Z,46.80
2019-03-15T04:56:33.275Z,46.40
2019-03-15T04:59:04.834Z,46.80
2019-03-15T05:01:36.596Z,46.80
2019-03-15T05:04:08.986Z,46.80
2019-03-15T05:06:40.921Z,46.40
2019-03-15T05:09:12.781Z,46.80
2019-03-15T05:11:43.664Z,46.80
2019-03-15T05:14:15.699Z,46.90
2019-03-15T05:16:46.457Z,46.10
2019-03-15T05:19:18.100Z,46.50
2019-03-15T05:21:49.767Z,46.60
2019-03-15T05:24:20.668Z,46.60
2019-03-15T05:26:51.495Z,46.60
2019-03-15T05:29:23.299Z,46.30
2019-03-15T05:31:55.332Z,46.70
2019-03-15T05:34:27.414Z,46.70
2019-03-15T05:36:59.584Z,46.70
2019-03-15T05:39:31.317Z,46.70
2019-03-15T05:42:03.783Z,47.60
2019-03-15T05:44:34.453Z,46.80
2019-03-15T05:47:06.036Z,46.80
2019-03-15T05:49:37.789Z,46.80
2019-03-15T05:52:09.756Z,46.80
2019-03-15T05:54:40.477Z,46.80
2019-03-15T05:57:12.313Z,46.80
2019-03-15T05:59:43.835Z,46.80
2019-03-15T06:02:15.769Z,46.80
2019-03-15T06:04:46.626Z,46.80
2019-03-15T06:07:18.357Z,46.80
2019-03-15T06:09:50.378Z,46.50
2019-03-15T06:12:22.044Z,46.80
2019-03-15T06:14:53.777Z,47.50
2019-03-15T06:17:24.453Z,46.80
2019-03-15T06:19:56.052Z,46.70
2019-03-15T06:22:28.302Z,46.80
2019-03-15T06:24:59.866Z,46.80
2019-03-15T06:27:31.433Z,46.80
2019-03-15T06:30:03.006Z,46.70
2019-03-15T06:32:34.789Z,46.60
2019-03-15T06:35:06.744Z,46.70
2019-03-15T06:37:37.484Z,46.70
2019-03-15T06:40:09.398Z,46.70
2019-03-15T06:42:41.036Z,46.70
2019-03-15T06:45:13.316Z,46.70
2019-03-15T06:47:45.310Z,46.60
2019-03-15T06:50:16.833Z,46.60
2019-03-15T06:52:48.496Z,46.70
2019-03-15T06:55:20.393Z,46.60
2019-03-15T06:57:52.486Z,46.60
2019-03-15T07:00:24.295Z,46.70
2019-03-15T07:02:56.035Z,46.60
2019-03-15T07:05:27.758Z,46.50
2019-03-15T07:07:58.446Z,47.20
2019-03-15T07:10:30.298Z,46.50
2019-03-15T07:13:01.844Z,46.50
2019-03-15T07:15:33.557Z,46.50
2019-03-15T07:18:05.309Z,46.40
2019-03-15T07:20:36.898Z,46.30
2019-03-15T07:23:08.816Z,46.30
2019-03-15T07:25:40.607Z,46.30
2019-03-15T07:28:12.588Z,46.20
2019-03-15T07:30:44.332Z,45.80
2019-03-15T07:33:16.301Z,45.70
2019-03-15T07:35:47.827Z,46.10
2019-03-15T07:38:19.468Z,46.00
2019-03-15T07:40:51.463Z,46.00
2019-03-15T07:43:23.293Z,45.80
2019-03-15T07:45:54.885Z,45.80
2019-03-15T07:48:26.996Z,45.80
2019-03-15T07:50:58.877Z,45.80
2019-03-15T07:53:30.755Z,45.70
2019-03-15T07:56:01.461Z,45.80
2019-03-15T07:58:33.676Z,45.60
2019-03-15T08:01:05.742Z,45.60
2019-03-15T08:03:37.653Z,45.60
2019-03-15T08:06:09.365Z,45.60
2019-03-15T08:08:41.133Z,45.20
2019-03-15T08:11:13.299Z,45.60
2019-03-15T08:13:44.817Z,45.50
2019-03-15T08:16:17.296Z,46.30
2019-03-15T08:18:48.818Z,45.60
2019-03-15T08:21:22.736Z,45.60
2019-03-15T08:23:54.317Z,45.60
2019-03-15T08:26:30.173Z,45.60
2019-03-15T08:29:01.309Z,45.60
2019-03-15T08:31:33.518Z,46.10
2019-03-15T08:34:05.306Z,45.60
2019-03-15T08:36:37.054Z,45.60
2019-03-15T08:39:09.730Z,45.60
2019-03-15T08:41:40.478Z,45.50
2019-03-15T08:44:12.625Z,45.50
2019-03-15T08:46:44.337Z,45.50
2019-03-15T08:49:16.044Z,45.10
2019-03-15T08:51:47.766Z,45.50
2019-03-15T08:54:19.362Z,45.40
2019-03-15T08:56:51.027Z,45.50
2019-03-15T08:59:22.770Z,45.50
2019-03-15T09:01:53.452Z,45.50
2019-03-15T09:04:25.054Z,45.40
2019-03-15T09:06:56.770Z,45.50
2019-03-15T09:09:27.857Z,45.50
2019-03-15T09:11:59.414Z,45.50
2019-03-15T09:14:31.032Z,45.60
2019-03-15T09:17:02.716Z,45.50
2019-03-15T09:19:33.459Z,45.50
2019-03-15T09:22:05.293Z,45.50
2019-03-15T09:24:37.061Z,45.50
2019-03-15T09:27:10.485Z,45.40
2019-03-15T09:29:42.302Z,45.50
2019-03-15T09:32:13.822Z,45.40
2019-03-15T09:34:45.497Z,45.70
2019-03-15T09:37:17.293Z,45.50
2019-03-15T09:39:48.999Z,45.00
2019-03-15T09:42:20.719Z,45.40
2019-03-15T09:44:51.477Z,45.40
2019-03-15T09:47:23.744Z,45.30
2019-03-15T09:49:54.462Z,45.50
2019-03-15T09:52:26.762Z,45.30
2019-03-15T09:54:57.497Z,45.20
2019-03-15T09:57:29.304Z,45.20
2019-03-15T10:00:01.034Z,45.30
2019-03-15T10:02:32.787Z,45.20
2019-03-15T10:05:10.988Z,45.10
2019-03-15T10:07:39.021Z,45.50
2019-03-15T10:10:15.543Z,45.10
2019-03-15T10:12:46.777Z,45.10
2019-03-15T10:15:17.496Z,45.00
2019-03-15T10:17:49.345Z,45.00
2019-03-15T10:20:21.029Z,44.90
2019-03-15T10:23:05.344Z,44.90
2019-03-15T10:25:26.736Z,44.80
2019-03-15T10:27:57.653Z,45.50
2019-03-15T10:30:29.745Z,44.80
2019-03-15T10:33:00.453Z,44.40
2019-03-15T10:35:32.577Z,44.70
2019-03-15T10:38:04.375Z,44.80
2019-03-15T10:40:36.040Z,44.20
2019-03-15T10:43:07.760Z,44.70
2019-03-15T10:45:38.662Z,44.60
2019-03-15T10:48:09.469Z,44.60
2019-03-15T10:50:41.338Z,44.20
2019-03-15T10:53:13.066Z,44.60
2019-03-15T10:55:44.771Z,44.60
2019-03-15T10:58:16.344Z,44.60
2019-03-15T11:00:47.980Z,44.60
2019-03-15T11:03:19.756Z,44.70
2019-03-15T11:05:51.391Z,44.60
2019-03-15T11:08:24.341Z,44.70
2019-03-15T11:10:56.340Z,44.70
2019-03-15T11:13:28.749Z,44.70
2019-03-15T11:15:59.633Z,44.70
2019-03-15T11:18:31.360Z,44.80
2019-03-15T11:21:03.299Z,44.40
2019-03-15T11:23:35.265Z,44.80
2019-03-15T11:26:13.608Z,44.80
2019-03-15T11:28:40.728Z,44.90
2019-03-15T11:31:11.474Z,44.80
2019-03-15T11:33:43.309Z,45.00
2019-03-15T11:36:14.869Z,45.00
2019-03-15T11:38:46.654Z,45.00
2019-03-15T11:41:18.345Z,45.10
2019-03-15T11:43:50.788Z,44.70
2019-03-15T11:46:21.488Z,45.10
2019-03-15T11:48:53.475Z,45.20
2019-03-15T11:51:25.045Z,45.20
2019-03-15T11:53:56.744Z,45.20
2019-03-15T11:56:28.290Z,45.20
2019-03-15T11:59:00.363Z,45.20
2019-03-15T12:01:32.309Z,45.20
2019-03-15T12:04:04.305Z,45.20
2019-03-15T12:06:35.851Z,45.20
2019-03-15T12:09:10.359Z,45.20
2019-03-15T12:11:42.077Z,45.20
2019-03-15T12:14:14.308Z,45.30
2019-03-15T12:16:45.777Z,45.30
2019-03-15T12:19:17.405Z,45.30
2019-03-15T12:21:49.365Z,45.30
2019-03-15T12:24:21.361Z,45.40
2019-03-15T12:26:53.073Z,45.40
2019-03-15T12:29:24.826Z,45.40
2019-03-15T12:31:56.357Z,45.50
2019-03-15T12:34:28.492Z,45.40
2019-03-15T12:37:00.310Z,45.40
2019-03-15T12:39:32.071Z,45.40
2019-03-15T12:42:03.792Z,45.40
2019-03-15T12:44:35.428Z,45.50
2019-03-15T12:47:07.045Z,45.40
2019-03-15T12:49:38.756Z,45.40
2019-03-15T12:52:09.439Z,45.40
2019-03-15T12:54:41.310Z,45.40
2019-03-15T12:57:13.300Z,46.10
2019-03-15T12:59:44.837Z,45.50
2019-03-15T13:02:16.468Z,45.40
2019-03-15T13:04:48.308Z,45.50
2019-03-15T13:07:20.297Z,45.40
2019-03-15T13:09:51.803Z,45.50
2019-03-15T13:12:23.729Z,45.50
2019-03-15T13:14:54.484Z,45.50
2019-03-15T13:17:26.306Z,45.50
2019-03-15T13:19:57.895Z,45.50
2019-03-15T13:22:29.794Z,45.50
2019-03-15T13:25:01.402Z,45.40
2019-03-15T13:27:33.106Z,45.50
2019-03-15T13:30:04.782Z,45.60
2019-03-15T13:32:36.588Z,45.60
2019-03-15T13:35:08.621Z,45.60
2019-03-15T13:37:42.681Z,45.60
2019-03-15T13:40:13.795Z,45.20
2019-03-15T13:42:45.796Z,45.70
2019-03-15T13:45:16.657Z,45.70
2019-03-15T13:47:48.350Z,45.80
2019-03-15T13:50:20.309Z,45.40
2019-03-15T13:52:51.807Z,45.80
2019-03-15T13:55:23.442Z,45.70
2019-03-15T13:57:55.037Z,45.80
2019-03-15T14:00:27.269Z,45.80
2019-03-15T14:02:58.900Z,45.80
2019-03-15T14:05:30.783Z,45.80
2019-03-15T14:08:11.122Z,45.80
2019-03-15T14:10:48.302Z,45.70
2019-03-15T14:13:11.698Z,45.70
2019-03-15T14:15:41.745Z,45.80
2019-03-15T14:18:12.470Z,45.80
2019-03-15T14:20:44.072Z,45.80
2019-03-15T14:23:16.064Z,45.90
2019-03-15T14:25:59.442Z,45.90
2019-03-15T14:28:31.327Z,45.90
2019-03-15T14:31:02.839Z,46.00
2019-03-15T14:33:34.401Z,45.90
2019-03-15T14:36:06.062Z,45.90
2019-03-15T14:38:38.002Z,46.00
2019-03-15T14:41:09.770Z,45.90
2019-03-15T14:43:41.496Z,45.90
2019-03-15T14:46:13.311Z,45.80
2019-03-15T14:48:44.838Z,45.90
2019-03-15T14:51:16.729Z,45.80
2019-03-15T14:53:47.469Z,46.50
2019-03-15T14:56:19.301Z,45.80
2019-03-15T14:58:50.845Z,45.80
2019-03-15T15:01:22.601Z,45.80
2019-03-15T15:03:54.332Z,45.80
2019-03-15T15:06:26.301Z,45.40
2019-03-15T15:08:57.867Z,45.60
2019-03-15T15:11:29.658Z,45.30
2019-03-15T15:14:01.358Z,45.00
2019-03-15T15:16:33.596Z,44.40
2019-03-15T15:19:05.317Z,44.40
2019-03-15T15:21:36.872Z,43.70
2019-03-15T15:24:08.770Z,43.90
2019-03-15T15:26:39.611Z,43.90
2019-03-15T15:29:11.730Z,43.80
2019-03-15T15:31:42.454Z,43.30
2019-03-15T15:34:14.059Z,43.70
2019-03-15T15:36:45.785Z,43.50
2019-03-15T15:39:16.669Z,43.50
2019-03-15T15:41:47.481Z,43.70
2019-03-15T15:44:19.258Z,43.30
2019-03-15T15:46:50.865Z,43.80
2019-03-15T15:49:22.646Z,43.70
2019-03-15T15:51:54.601Z,43.90
2019-03-15T15:54:26.339Z,43.50
2019-03-15T15:56:58.365Z,43.70
2019-03-15T15:59:30.148Z,44.20
2019-03-15T16:02:01.876Z,44.30
2019-03-15T16:04:33.402Z,44.30
2019-03-15T16:07:05.299Z,44.50
2019-03-15T16:09:36.903Z,45.00
2019-03-15T16:12:08.346Z,44.80
2019-03-15T16:14:40.020Z,45.10
2019-03-15T16:17:11.777Z,45.40
2019-03-15T16:19:42.451Z,45.50
2019-03-15T16:22:14.584Z,44.80
2019-03-15T16:24:46.753Z,44.80
2019-03-15T16:27:17.462Z,44.20
2019-03-15T16:29:49.304Z,44.40
2019-03-15T16:32:20.840Z,44.10
2019-03-15T16:34:52.649Z,44.60
2019-03-15T16:37:24.392Z,44.00
2019-03-15T16:39:56.576Z,43.60
2019-03-15T16:42:28.337Z,43.90
2019-03-15T16:44:59.889Z,43.50
2019-03-15T16:47:31.800Z,43.90
2019-03-15T16:50:03.345Z,43.90
2019-03-15T16:52:35.055Z,44.00
2019-03-15T16:55:07.888Z,44.10
2019-03-15T16:57:39.735Z,44.00
2019-03-15T17:00:12.249Z,44.00
2019-03-15T17:02:43.822Z,44.10
2019-03-15T17:05:15.584Z,44.10
2019-03-15T17:07:47.296Z,44.00
2019-03-15T17:10:19.044Z,44.30
2019-03-15T17:12:50.761Z,44.00
2019-03-15T17:15:21.604Z,44.20
2019-03-15T17:17:53.369Z,44.10
2019-03-15T17:20:25.057Z,43.90
2019-03-15T17:22:56.753Z,44.30
2019-03-15T17:25:27.697Z,44.30
2019-03-15T17:27:58.473Z,44.20
2019-03-15T17:30:30.299Z,45.70
2019-03-15T17:33:01.821Z,46.00
2019-03-15T17:35:33.535Z,45.60
2019-03-15T17:38:05.293Z,46.10
2019-03-15T17:40:36.923Z,45.90
2019-03-15T17:43:08.968Z,45.80
2019-03-15T17:45:40.709Z,45.90
2019-03-15T17:48:12.329Z,45.80
2019-03-15T17:50:43.841Z,45.70
2019-03-15T17:53:15.593Z,45.40
2019-03-15T17:55:47.643Z,45.60
2019-03-15T17:58:18.460Z,44.90
2019-03-15T18:00:50.398Z,44.80
2019-03-15T18:03:22.485Z,45.20
2019-03-15T18:05:54.287Z,45.20
2019-03-15T18:08:25.829Z,45.20
2019-03-15T18:10:57.617Z,45.20
2019-03-15T18:13:29.742Z,44.90
2019-03-15T18:16:00.432Z,44.40
2019-03-15T18:18:32.296Z,44.50
2019-03-15T18:21:03.800Z,45.10
2019-03-15T18:23:35.784Z,44.40
2019-03-15T18:26:06.460Z,44.30
2019-03-15T18:28:38.485Z,44.40
2019-03-15T18:31:10.296Z,44.30
2019-03-15T18:33:41.864Z,44.40
2019-03-15T18:36:13.732Z,45.10
2019-03-15T18:38:44.445Z,44.70
2019-03-15T18:41:16.366Z,44.60
2019-03-15T18:43:48.392Z,44.70
2019-03-15T18:46:20.049Z,44.50
2019-03-15T18:48:51.761Z,44.40
2019-03-15T18:51:22.467Z,44.30
2019-03-15T18:53:54.292Z,44.20
2019-03-15T18:56:25.898Z,44.10
2019-03-15T18:58:57.826Z,44.10
2019-03-15T19:01:29.778Z,44.00
2019-03-15T19:04:00.448Z,43.80
2019-03-15T19:06:32.023Z,43.80
2019-03-15T19:09:04.329Z,43.90
2019-03-15T19:11:39.292Z,43.70
2019-03-15T19:14:11.343Z,43.80
2019-03-15T19:16:43.014Z,43.80
2019-03-15T19:19:14.757Z,43.70
2019-03-15T19:21:46.332Z,43.80
2019-03-15T19:24:17.833Z,43.80
2019-03-15T19:26:51.420Z,43.90
2019-03-15T19:29:23.056Z,44.00
2019-03-15T19:31:54.775Z,44.10
2019-03-15T19:34:27.036Z,44.30
2019-03-15T19:37:00.973Z,44.30
2019-03-15T19:39:32.794Z,44.30
2019-03-15T19:42:04.577Z,44.30
2019-03-15T19:44:36.293Z,44.40
2019-03-15T19:47:07.801Z,44.70
2019-03-15T19:49:39.673Z,44.60
2019-03-15T19:52:11.550Z,44.40
2019-03-15T19:54:43.298Z,44.20
2019-03-15T19:57:15.062Z,44.60
2019-03-15T19:59:46.894Z,44.60
2019-03-15T20:02:18.419Z,44.60
2019-03-15T20:04:50.289Z,44.80
2019-03-15T20:07:21.823Z,44.50
2019-03-15T20:09:53.532Z,44.80
2019-03-15T20:12:25.255Z,44.80
2019-03-15T20:14:56.813Z,45.40
2019-03-15T20:17:28.492Z,44.70
2019-03-15T20:20:06.298Z,44.70
2019-03-15T20:22:37.841Z,44.80
2019-03-15T20:25:12.496Z,44.60
2019-03-15T20:27:44.538Z,44.70
2019-03-15T20:30:21.448Z,44.80
2019-03-15T20:32:51.258Z,45.00
2019-03-15T20:35:23.302Z,44.80
2019-03-15T20:44:39.282Z,44.50
2019-03-15T20:47:12.323Z,45.40
2019-03-15T20:49:44.865Z,45.60
2019-03-15T20:52:17.326Z,45.40
2019-03-15T20:54:49.838Z,45.70
2019-03-15T20:57:21.864Z,45.70
2019-03-15T20:59:53.872Z,45.70
2019-03-15T21:02:26.394Z,45.90
2019-03-15T21:04:59.373Z,45.90
2019-03-15T21:07:32.387Z,45.90
2019-03-15T21:10:04.841Z,45.80
2019-03-15T21:12:37.554Z,45.70
2019-03-15T21:15:11.105Z,46.00
2019-03-15T21:17:43.462Z,45.50
2019-03-15T21:20:15.872Z,45.60
2019-03-15T21:22:48.368Z,46.10
2019-03-15T21:25:21.303Z,46.00
2019-03-15T21:27:54.709Z,46.10
2019-03-15T21:30:27.802Z,46.20
2019-03-15T21:33:00.013Z,46.30
2019-03-15T21:35:32.094Z,46.40
2019-03-15T21:38:05.002Z,46.20
2019-03-15T21:40:37.700Z,46.40
2019-03-15T21:43:09.542Z,46.40
2019-03-15T21:45:41.894Z,46.20
2019-03-15T21:48:14.090Z,46.00
2019-03-15T21:50:46.922Z,46.50
2019-03-15T21:53:18.894Z,46.50
2019-03-15T21:55:51.118Z,46.60
2019-03-15T21:58:23.892Z,46.60
2019-03-15T22:01:02.174Z,46.50
2019-03-15T22:03:31.038Z,46.50
2019-03-15T22:06:03.526Z,46.60
2019-03-15T22:08:36.004Z,46.50
2019-03-15T22:11:20.642Z,46.40
2019-03-15T22:13:42.583Z,46.60
2019-03-15T22:16:14.840Z,46.50
2019-03-15T22:18:46.924Z,47.10
2019-03-15T22:21:19.284Z,46.60
2019-03-15T22:23:52.546Z,46.60
2019-03-15T22:26:24.866Z,46.20
2019-03-15T22:28:57.336Z,46.10
2019-03-15T22:31:29.883Z,46.60
2019-03-15T22:34:02.335Z,46.60
2019-03-15T22:36:35.363Z,46.70
2019-03-15T22:39:09.094Z,47.20
2019-03-15T22:41:42.009Z,46.80
2019-03-15T22:44:14.380Z,46.70
2019-03-15T22:46:46.855Z,46.80
2019-03-15T22:49:19.455Z,47.50
2019-03-15T22:51:52.082Z,46.90
2019-03-15T22:54:24.858Z,46.80
2019-03-15T22:56:58.156Z,46.90
2019-03-15T22:59:30.432Z,46.90
2019-03-15T23:02:03.883Z,46.90
2019-03-15T23:04:36.144Z,47.00
2019-03-15T23:07:08.856Z,47.00
2019-03-15T23:09:43.346Z,47.00
2019-03-15T23:12:19.538Z,47.00
2019-03-15T23:14:51.849Z,47.10
2019-03-15T23:17:24.044Z,47.70
2019-03-15T23:19:56.347Z,46.80
2019-03-15T23:22:29.370Z,47.00
2019-03-15T23:25:02.140Z,47.10
2019-03-15T23:27:34.887Z,47.00
2019-03-15T23:30:08.337Z,47.10
2019-03-15T23:32:40.841Z,47.00
2019-03-15T23:35:13.028Z,47.10
2019-03-15T23:37:45.339Z,47.10
2019-03-15T23:40:18.120Z,47.00
2019-03-15T23:42:50.922Z,47.00
2019-03-15T23:45:23.429Z,47.10
2019-03-15T23:47:56.343Z,47.10
2019-03-15T23:50:28.873Z,47.10
2019-03-15T23:53:01.027Z,47.10
2019-03-15T23:55:33.338Z,47.10
2019-03-15T23:58:05.903Z,47.10
